createdAt,value
2023-05-08T00:24:26.188Z,4.83
2023-05-08T00:34:30.327Z,4.70
2023-05-08T00:49:54.499Z,5.37
2023-05-08T00:56:44.249Z,5.43
2023-05-08T01:12:07.863Z,5.20
2023-05-08T01:16:20.873Z,5.80
2023-05-08T01:29:57.190Z,5.65
2023-05-08T01:43:50.566Z,5.30
2023-05-08T01:51:19.991Z,5.43
2023-05-08T01:54:13.426Z,7.30
2023-05-08T02:05:31.997Z,5.40
2023-05-08T02:20:50.408Z,5.77
2023-05-08T02:30:17.951Z,6.40
2023-05-08T02:32:48.118Z,5.70
2023-05-08T02:35:20.234Z,5.77
2023-05-08T02:37:52.884Z,7.80
2023-05-08T02:40:22.900Z,6.00
2023-05-08T02:42:50.435Z,5.70
2023-05-08T02:45:17.441Z,6.40
2023-05-08T02:48:11.993Z,6.93
2023-05-08T02:50:46.077Z,6.60
2023-05-08T02:53:22.345Z,7.37
2023-05-08T02:55:54.894Z,6.27
2023-05-08T02:58:46.229Z,6.80
2023-05-08T03:01:29.062Z,6.67
2023-05-08T03:04:08.325Z,6.33
2023-05-08T03:06:45.879Z,7.47
2023-05-08T03:09:19.624Z,6.00
2023-05-08T03:11:50.632Z,6.60
2023-05-08T03:14:22.939Z,6.50
2023-05-08T03:16:51.298Z,6.47
2023-05-08T03:19:38.388Z,6.40
2023-05-08T03:22:07.895Z,6.73
2023-05-08T03:24:40.090Z,6.17
2023-05-08T03:27:08.606Z,6.60
2023-05-08T03:29:38.498Z,6.93
2023-05-08T03:32:06.510Z,6.43
2023-05-08T03:34:34.342Z,6.33
2023-05-08T03:37:05.442Z,6.85
2023-05-08T03:39:32.613Z,6.80
2023-05-08T03:41:59.712Z,6.80
2023-05-08T03:44:30.082Z,6.50
2023-05-08T03:46:58.492Z,6.60
2023-05-08T03:49:30.797Z,6.40
2023-05-08T03:51:58.114Z,7.20
2023-05-08T03:54:25.623Z,6.30
2023-05-08T03:56:54.285Z,7.00
2023-05-08T03:59:33.872Z,7.57
2023-05-08T04:02:20.933Z,6.80
2023-05-08T04:04:57.125Z,7.30
2023-05-08T04:07:48.096Z,7.30
2023-05-08T04:10:38.285Z,7.10
2023-05-08T04:13:12.480Z,7.07
2023-05-08T04:16:01.263Z,6.90
2023-05-08T04:18:34.901Z,6.60
2023-05-08T04:21:08.878Z,5.93
2023-05-08T04:23:38.744Z,7.07
2023-05-08T04:26:09.587Z,5.60
2023-05-08T04:28:36.561Z,6.43
2023-05-08T04:31:05.030Z,6.00
2023-05-08T04:33:34.209Z,5.90
2023-05-08T04:36:04.677Z,6.00
2023-05-08T04:38:31.686Z,4.57
2023-05-08T04:40:58.657Z,5.30
2023-05-08T04:43:26.414Z,5.13
2023-05-08T04:45:53.326Z,5.93
2023-05-08T04:48:20.376Z,5.60
2023-05-08T04:50:47.325Z,5.50
2023-05-08T04:53:14.293Z,5.00
2023-05-08T04:55:41.912Z,6.17
2023-05-08T04:58:10.981Z,5.40
2023-05-08T05:00:37.870Z,5.37
2023-05-08T05:03:05.249Z,5.13
2023-05-08T05:05:32.317Z,4.57
2023-05-08T05:07:59.262Z,4.50
2023-05-08T05:10:26.187Z,4.60
2023-05-08T05:12:53.142Z,5.07
2023-05-08T05:15:20.327Z,4.10
2023-05-08T05:17:47.254Z,4.60
2023-05-08T05:20:15.006Z,5.07
2023-05-08T05:22:41.960Z,4.40
2023-05-08T05:25:09.465Z,4.30
2023-05-08T05:27:37.097Z,4.10
2023-05-08T05:30:04.496Z,4.80
2023-05-08T05:32:31.411Z,4.80
2023-05-08T05:34:58.481Z,4.40
2023-05-08T05:37:25.447Z,3.97
2023-05-08T05:39:52.555Z,3.47
2023-05-08T05:42:19.411Z,3.70
2023-05-08T05:44:46.306Z,3.50
2023-05-08T05:47:13.259Z,4.10
2023-05-08T05:49:42.960Z,3.43
2023-05-08T05:52:09.870Z,2.80
2023-05-08T05:54:36.881Z,3.00
2023-05-08T05:57:04.320Z,3.53
2023-05-08T05:59:31.615Z,3.53
2023-05-08T06:01:58.633Z,3.10
2023-05-08T06:04:26.396Z,3.43
2023-05-08T06:06:53.414Z,3.57
2023-05-08T06:09:21.613Z,3.50
2023-05-08T06:11:48.455Z,3.50
2023-05-08T06:14:15.365Z,3.87
2023-05-08T06:16:42.311Z,3.13
2023-05-08T06:19:11.491Z,3.10
2023-05-08T06:21:39.823Z,3.30
2023-05-08T06:26:58.347Z,3.20
2023-05-08T06:29:25.206Z,3.37
2023-05-08T06:31:52.069Z,2.70
2023-05-08T06:34:19.019Z,2.30
2023-05-08T06:36:46.024Z,3.37
2023-05-08T06:39:12.952Z,3.07
2023-05-08T06:41:39.854Z,3.17
2023-05-08T06:44:07.656Z,3.10
2023-05-08T06:46:34.742Z,3.03
2023-05-08T06:51:52.347Z,2.67
2023-05-08T06:54:19.321Z,2.67
2023-05-08T06:56:46.428Z,2.73
2023-05-08T06:59:13.282Z,2.63
2023-05-08T07:01:40.237Z,2.90
2023-05-08T07:04:10.068Z,2.70
2023-05-08T07:06:36.977Z,2.40
2023-05-08T07:09:03.848Z,2.40
2023-05-08T07:11:30.744Z,2.37
2023-05-08T07:13:57.622Z,2.63
2023-05-08T07:16:24.612Z,2.60
2023-05-08T07:18:51.910Z,2.23
2023-05-08T07:21:20.269Z,2.30
2023-05-08T07:23:48.018Z,2.20
2023-05-08T07:26:14.996Z,2.60
2023-05-08T07:28:41.844Z,2.60
2023-05-08T07:31:08.913Z,1.90
2023-05-08T07:33:35.804Z,2.53
2023-05-08T07:36:02.707Z,2.07
2023-05-08T07:38:29.653Z,3.00
2023-05-08T07:41:01.661Z,2.40
2023-05-08T07:43:28.639Z,1.90
2023-05-08T07:45:55.697Z,2.27
2023-05-08T07:48:22.566Z,2.20
2023-05-08T07:50:50.596Z,1.93
2023-05-08T07:53:17.700Z,2.40
2023-05-08T07:55:44.588Z,2.40
2023-05-08T07:58:11.443Z,2.47
2023-05-08T08:00:38.303Z,2.10
2023-05-08T08:03:05.260Z,2.37
2023-05-08T08:05:32.183Z,1.90
2023-05-08T08:07:59.054Z,3.10
2023-05-08T08:10:26.082Z,1.67
2023-05-08T08:12:53.428Z,1.83
2023-05-08T08:15:20.389Z,1.53
2023-05-08T08:17:47.436Z,1.77
2023-05-08T08:20:14.453Z,1.80
2023-05-08T08:22:41.432Z,2.20
2023-05-08T08:25:09.150Z,1.80
2023-05-08T08:27:36.087Z,1.73
2023-05-08T08:30:15.876Z,2.20
2023-05-08T08:32:44.638Z,1.87
2023-05-08T08:35:12.092Z,1.93
2023-05-08T08:37:39.184Z,1.80
2023-05-08T08:40:07.230Z,2.00
2023-05-08T08:42:34.189Z,2.27
2023-05-08T08:45:02.683Z,2.50
2023-05-08T08:47:37.656Z,1.70
2023-05-08T08:50:06.855Z,1.70
2023-05-08T08:52:54.118Z,1.83
2023-05-08T08:55:25.785Z,2.33
2023-05-08T08:58:31.184Z,1.60
2023-05-08T09:01:00.952Z,2.00
2023-05-08T09:03:27.889Z,1.80
2023-05-08T09:05:55.456Z,1.60
2023-05-08T09:08:22.842Z,2.47
2023-05-08T09:10:49.705Z,1.87
2023-05-08T09:13:19.657Z,1.80
2023-05-08T09:15:47.272Z,2.07
2023-05-08T09:18:14.201Z,2.53
2023-05-08T09:20:41.644Z,2.00
2023-05-08T09:23:09.130Z,2.10
2023-05-08T09:25:44.282Z,2.10
2023-05-08T09:28:22.634Z,1.83
2023-05-08T09:30:57.353Z,2.50
2023-05-08T09:33:27.650Z,1.80
2023-05-08T09:35:56.368Z,1.50
2023-05-08T09:38:38.115Z,1.87
2023-05-08T09:41:16.982Z,1.70
2023-05-08T09:43:46.085Z,2.20
2023-05-08T09:46:27.339Z,2.40
2023-05-08T09:48:57.214Z,1.80
2023-05-08T09:51:26.838Z,1.90
2023-05-08T09:53:56.449Z,2.27
2023-05-08T09:56:39.617Z,1.70
2023-05-08T09:59:27.514Z,1.80
2023-05-08T10:01:56.257Z,1.70
2023-05-08T10:04:38.063Z,1.57
2023-05-08T10:07:05.390Z,1.50
2023-05-08T10:09:47.099Z,1.40
2023-05-08T10:12:17.912Z,1.43
2023-05-08T10:14:46.810Z,1.10
2023-05-08T10:17:20.468Z,2.03
2023-05-08T10:19:53.590Z,2.30
2023-05-08T10:22:25.560Z,1.83
2023-05-08T10:24:58.667Z,2.13
2023-05-08T10:27:41.606Z,1.60
2023-05-08T10:30:14.749Z,2.07
2023-05-08T10:32:45.805Z,2.00
2023-05-08T10:35:13.153Z,2.30
2023-05-08T10:37:42.374Z,2.33
2023-05-08T10:40:11.771Z,2.00
2023-05-08T10:42:40.474Z,2.00
2023-05-08T10:45:08.883Z,1.93
2023-05-08T10:48:04.314Z,1.83
2023-05-08T10:50:31.128Z,2.63
2023-05-08T10:53:29.577Z,2.07
2023-05-08T10:55:56.722Z,1.90
2023-05-08T10:58:23.528Z,2.07
2023-05-08T11:00:53.093Z,1.70
2023-05-08T11:03:31.409Z,1.53
2023-05-08T11:06:01.320Z,2.00
2023-05-08T11:08:30.625Z,2.00
2023-05-08T11:11:00.669Z,1.63
2023-05-08T11:13:50.721Z,1.90
2023-05-08T11:16:18.154Z,2.00
2023-05-08T11:19:17.370Z,2.40
2023-05-08T11:22:21.766Z,2.20
2023-05-08T11:24:50.228Z,2.20
2023-05-08T11:27:17.485Z,2.57
2023-05-08T11:29:47.696Z,2.47
2023-05-08T11:32:14.665Z,1.83
2023-05-08T11:34:44.295Z,2.40
2023-05-08T11:37:24.315Z,1.50
2023-05-08T11:39:51.504Z,2.27
2023-05-08T11:42:27.205Z,2.37
2023-05-08T11:45:07.569Z,1.80
2023-05-08T11:47:41.562Z,2.13
2023-05-08T11:50:10.921Z,2.37
2023-05-08T11:52:40.259Z,2.27
2023-05-08T11:55:10.212Z,3.07
2023-05-08T11:57:37.694Z,2.30
2023-05-08T12:00:12.837Z,2.13
2023-05-08T12:02:43.190Z,1.60
2023-05-08T12:05:11.781Z,1.80
2023-05-08T12:07:48.438Z,2.20
2023-05-08T12:10:16.847Z,2.27
2023-05-08T12:12:45.236Z,1.77
2023-05-08T12:15:15.301Z,2.10
2023-05-08T12:17:43.148Z,2.20
2023-05-08T12:20:15.200Z,2.20
2023-05-08T12:22:50.149Z,1.83
2023-05-08T12:25:17.868Z,2.20
2023-05-08T12:27:45.327Z,2.43
2023-05-08T12:30:14.784Z,1.90
2023-05-08T12:32:43.211Z,2.20
2023-05-08T12:35:12.827Z,1.63
2023-05-08T12:37:40.556Z,1.43
2023-05-08T12:40:19.537Z,1.77
2023-05-08T12:42:49.872Z,2.23
2023-05-08T12:45:33.646Z,1.93
2023-05-08T12:48:13.110Z,1.83
2023-05-08T12:50:43.075Z,1.57
2023-05-08T12:53:15.754Z,1.60
2023-05-08T12:55:57.616Z,2.50
2023-05-08T12:58:35.501Z,2.07
2023-05-08T13:01:13.246Z,2.17
2023-05-08T13:03:41.491Z,2.17
2023-05-08T13:06:21.174Z,2.13
2023-05-08T13:08:55.166Z,2.43
2023-05-08T13:11:34.280Z,1.83
2023-05-08T13:14:01.822Z,2.00
2023-05-08T13:16:29.049Z,2.10
2023-05-08T13:18:56.013Z,1.70
2023-05-08T13:21:23.048Z,2.00
2023-05-08T13:23:50.684Z,1.97
2023-05-08T13:26:17.549Z,2.07
2023-05-08T13:28:44.542Z,2.07
2023-05-08T13:31:11.421Z,2.23
2023-05-08T13:33:38.399Z,1.70
2023-05-08T13:36:05.539Z,1.90
2023-05-08T13:38:32.543Z,1.43
2023-05-08T13:40:59.447Z,1.80
2023-05-08T13:43:26.310Z,1.90
2023-05-08T13:45:54.219Z,3.30
2023-05-08T13:48:21.179Z,2.17
2023-05-08T13:50:48.066Z,1.60
2023-05-08T13:53:14.939Z,2.03
2023-05-08T13:55:42.345Z,1.60
2023-05-08T13:58:09.257Z,1.70
2023-05-08T14:00:36.335Z,1.90
2023-05-08T14:03:03.745Z,1.53
2023-05-08T14:05:30.697Z,2.07
2023-05-08T14:07:57.553Z,1.57
2023-05-08T14:10:24.527Z,2.33
2023-05-08T14:12:51.599Z,2.17
2023-05-08T14:15:18.608Z,1.50
2023-05-08T14:17:45.688Z,1.47
2023-05-08T14:20:12.865Z,1.87
2023-05-08T14:22:40.394Z,1.33
2023-05-08T14:25:08.820Z,2.20
2023-05-08T14:27:36.163Z,1.77
2023-05-08T14:30:03.962Z,1.73
2023-05-08T14:32:31.129Z,2.00
2023-05-08T14:34:58.434Z,2.07
2023-05-08T14:37:25.650Z,1.70
2023-05-08T14:39:54.247Z,1.90
2023-05-08T14:42:23.668Z,1.67
2023-05-08T14:44:51.551Z,1.90
2023-05-08T14:47:19.007Z,1.40
2023-05-08T14:49:45.903Z,2.00
2023-05-08T14:52:12.958Z,2.70
2023-05-08T14:54:40.534Z,2.17
2023-05-08T14:57:07.764Z,1.90
2023-05-08T14:59:34.983Z,1.90
2023-05-08T15:02:04.675Z,1.40
2023-05-08T15:04:31.958Z,2.53
2023-05-08T15:06:59.036Z,2.67
2023-05-08T15:09:26.218Z,1.93
2023-05-08T15:11:53.220Z,3.00
2023-05-08T15:14:20.533Z,2.00
2023-05-08T15:16:47.530Z,2.03
2023-05-08T15:19:14.466Z,2.37
2023-05-08T15:21:41.406Z,1.70
2023-05-08T15:24:09.025Z,1.80
2023-05-08T15:26:36.402Z,1.57
2023-05-08T15:29:03.313Z,1.80
2023-05-08T15:31:30.300Z,1.90
2023-05-08T15:33:57.236Z,1.90
2023-05-08T15:36:24.471Z,2.33
2023-05-08T15:38:54.025Z,2.37
2023-05-08T15:41:21.802Z,2.00
2023-05-08T15:43:49.714Z,2.50
2023-05-08T15:46:16.724Z,1.70
2023-05-08T15:48:43.752Z,2.10
2023-05-08T15:51:11.548Z,2.03
2023-05-08T15:53:38.456Z,2.00
2023-05-08T15:56:06.950Z,2.20
2023-05-08T15:58:34.652Z,2.10
2023-05-08T16:01:01.574Z,2.50
2023-05-08T16:03:28.619Z,1.93
2023-05-08T16:05:55.582Z,2.17
2023-05-08T16:08:22.790Z,1.90
2023-05-08T16:10:49.675Z,2.10
2023-05-08T16:13:16.672Z,2.23
2023-05-08T16:15:43.722Z,1.70
2023-05-08T16:18:10.955Z,2.70
2023-05-08T16:20:41.649Z,2.00
2023-05-08T16:23:09.117Z,2.50
2023-05-08T16:25:36.331Z,1.90
2023-05-08T16:28:03.623Z,2.10
2023-05-08T16:30:30.881Z,2.03
2023-05-08T16:32:58.114Z,2.07
2023-05-08T16:35:25.288Z,2.17
2023-05-08T16:37:52.794Z,2.63
2023-05-08T16:40:20.057Z,2.87
2023-05-08T16:42:47.161Z,2.30
2023-05-08T16:45:14.751Z,2.10
2023-05-08T16:47:42.327Z,2.50
2023-05-08T16:50:10.231Z,2.53
2023-05-08T16:52:38.481Z,2.10
2023-05-08T16:55:06.317Z,2.30
2023-05-08T16:57:33.572Z,1.87
2023-05-08T17:00:01.444Z,2.03
2023-05-08T17:02:28.728Z,2.50
2023-05-08T17:04:55.880Z,2.63
2023-05-08T17:07:24.198Z,2.20
2023-05-08T17:09:57.029Z,2.10
2023-05-08T17:12:25.280Z,2.20
2023-05-08T17:14:52.512Z,3.27
2023-05-08T17:17:19.536Z,2.70
2023-05-08T17:19:46.729Z,2.87
2023-05-08T17:22:13.734Z,2.50
2023-05-08T17:24:40.657Z,2.20
2023-05-08T17:27:08.220Z,2.90
2023-05-08T17:29:35.709Z,2.60
2023-05-08T17:32:02.685Z,2.47
2023-05-08T17:34:29.671Z,2.30
2023-05-08T17:36:56.804Z,1.83
2023-05-08T17:39:23.661Z,2.43
2023-05-08T17:41:51.758Z,2.30
2023-05-08T17:44:18.880Z,2.23
2023-05-08T17:46:46.119Z,2.33
2023-05-08T17:49:14.555Z,2.27
2023-05-08T17:51:42.366Z,1.90
2023-05-08T17:54:09.284Z,2.23
2023-05-08T17:56:36.215Z,1.97
2023-05-08T17:59:03.190Z,2.97
2023-05-08T18:01:30.086Z,2.20
2023-05-08T18:03:57.123Z,2.30
2023-05-08T18:06:24.252Z,2.13
2023-05-08T18:08:51.215Z,2.27
2023-05-08T18:11:24.715Z,2.20
2023-05-08T18:13:54.476Z,2.50
2023-05-08T18:16:22.599Z,2.20
2023-05-08T18:18:50.206Z,2.30
2023-05-08T18:21:17.374Z,2.60
2023-05-08T18:23:44.344Z,2.67
2023-05-08T18:26:15.729Z,2.70
2023-05-08T18:28:43.815Z,2.37
2023-05-08T18:31:11.882Z,3.20
2023-05-08T18:33:39.310Z,2.63
2023-05-08T18:36:07.318Z,2.63
2023-05-08T18:38:35.654Z,2.60
2023-05-08T18:41:05.192Z,2.37
2023-05-08T18:43:32.282Z,2.33
2023-05-08T18:46:00.681Z,2.40
2023-05-08T18:48:27.828Z,2.93
2023-05-08T18:50:58.435Z,2.60
2023-05-08T18:53:25.514Z,3.20
2023-05-08T18:55:52.880Z,3.27
2023-05-08T18:58:19.752Z,2.87
2023-05-08T19:00:46.749Z,3.47
2023-05-08T19:03:13.844Z,2.10
2023-05-08T19:05:44.076Z,2.50
2023-05-08T19:08:11.094Z,2.73
2023-05-08T19:10:37.978Z,3.13
2023-05-08T19:13:05.330Z,2.67
2023-05-08T19:15:32.498Z,2.37
2023-05-08T19:17:59.435Z,4.70
2023-05-08T19:20:26.374Z,2.60
2023-05-08T19:22:53.542Z,3.03
2023-05-08T19:25:20.796Z,3.10
2023-05-08T19:27:47.821Z,3.47
2023-05-08T19:30:15.414Z,2.87
2023-05-08T19:32:42.571Z,3.53
2023-05-08T19:35:09.721Z,2.97
2023-05-08T19:37:37.867Z,2.87
2023-05-08T19:40:06.371Z,2.90
2023-05-08T19:42:33.500Z,4.90
2023-05-08T19:45:00.399Z,4.60
2023-05-08T19:47:27.450Z,3.67
2023-05-08T19:49:54.353Z,3.30
2023-05-08T19:52:21.351Z,3.40
2023-05-08T19:54:48.341Z,3.93
2023-05-08T19:57:15.210Z,2.70
2023-05-08T19:59:42.051Z,3.30
2023-05-08T20:02:09.010Z,2.73
2023-05-08T20:04:51.869Z,4.13
2023-05-08T20:07:22.750Z,3.90
2023-05-08T20:09:49.620Z,3.20
2023-05-08T20:12:16.605Z,3.70
2023-05-08T20:14:43.709Z,3.67
2023-05-08T20:17:10.761Z,3.60
2023-05-08T20:19:37.667Z,3.70
2023-05-08T20:22:04.674Z,3.33
2023-05-08T20:24:31.773Z,3.87
2023-05-08T20:26:58.670Z,3.40
2023-05-08T20:29:26.390Z,4.00
2023-05-08T20:31:53.776Z,3.13
2023-05-08T20:34:22.136Z,3.30
2023-05-08T20:36:49.168Z,2.93
2023-05-08T20:39:16.160Z,3.80
2023-05-08T20:41:43.102Z,3.33
2023-05-08T20:44:12.233Z,3.20
2023-05-08T20:46:40.712Z,3.40
2023-05-08T20:49:07.595Z,3.13
2023-05-08T20:51:36.256Z,3.57
2023-05-08T20:54:03.523Z,3.80
2023-05-08T20:56:30.483Z,3.40
2023-05-08T20:58:57.354Z,4.00
2023-05-08T21:01:24.373Z,4.13
2023-05-08T21:03:51.292Z,3.50
2023-05-08T21:06:18.129Z,3.20
2023-05-08T21:08:45.005Z,4.20
2023-05-08T21:11:12.596Z,3.87
2023-05-08T21:13:39.488Z,3.60
2023-05-08T21:16:07.500Z,2.90
2023-05-08T21:18:34.476Z,3.33
2023-05-08T21:21:01.372Z,3.70
2023-05-08T21:23:31.112Z,3.77
2023-05-08T21:25:57.953Z,4.20
2023-05-08T21:28:24.831Z,3.07
2023-05-08T21:30:51.717Z,3.80
2023-05-08T21:33:18.739Z,3.50
2023-05-08T21:35:46.707Z,3.90
2023-05-08T21:38:13.650Z,3.70
2023-05-08T21:40:40.567Z,3.70
2023-05-08T21:43:07.456Z,3.70
2023-05-08T21:45:34.397Z,3.33
2023-05-08T21:48:02.301Z,3.43
2023-05-08T21:50:29.274Z,3.43
2023-05-08T21:52:56.679Z,6.93
2023-05-08T21:55:23.844Z,4.10
2023-05-08T21:57:50.941Z,3.60
2023-05-08T22:00:18.421Z,4.40
2023-05-08T22:02:45.476Z,4.27
2023-05-08T22:05:12.722Z,3.47
2023-05-08T22:07:39.853Z,3.63
2023-05-08T22:10:09.138Z,3.63
2023-05-08T22:12:36.103Z,4.47
2023-05-08T22:15:09.298Z,3.87
2023-05-08T22:17:40.172Z,3.73
2023-05-08T22:20:09.361Z,3.37
2023-05-08T22:22:36.360Z,3.43
2023-05-08T22:25:03.750Z,3.40
2023-05-08T22:27:30.601Z,3.83
2023-05-08T22:30:00.207Z,4.17
2023-05-08T22:32:28.490Z,4.20
2023-05-08T22:34:57.902Z,3.80
2023-05-08T22:37:26.130Z,3.80
2023-05-08T22:39:53.000Z,4.00
2023-05-08T22:42:19.971Z,3.80
2023-05-08T22:44:47.009Z,4.13
2023-05-08T22:47:14.126Z,3.77
2023-05-08T22:49:42.343Z,4.00
2023-05-08T22:52:09.873Z,3.93
2023-05-08T22:54:36.775Z,4.00
2023-05-08T22:57:03.888Z,3.80
2023-05-08T22:59:30.939Z,3.47
2023-05-08T23:01:58.071Z,4.00
2023-05-08T23:04:24.981Z,4.20
2023-05-08T23:06:52.132Z,3.60
2023-05-08T23:09:19.093Z,4.83
2023-05-08T23:11:46.151Z,4.30
2023-05-08T23:14:13.155Z,3.60
2023-05-08T23:16:40.201Z,3.97
2023-05-08T23:19:07.576Z,4.07
2023-05-08T23:21:34.675Z,4.03
2023-05-08T23:24:02.070Z,3.90
2023-05-08T23:26:29.256Z,3.93
2023-05-08T23:28:56.437Z,3.93
2023-05-08T23:31:23.573Z,3.90
2023-05-08T23:33:50.624Z,4.07
2023-05-08T23:36:18.051Z,4.77
2023-05-08T23:38:44.914Z,3.60
2023-05-08T23:41:12.073Z,4.07
2023-05-08T23:43:39.110Z,3.63
2023-05-08T23:46:06.538Z,4.10
2023-05-08T23:48:33.525Z,4.13
2023-05-08T23:51:00.437Z,3.70
2023-05-08T23:53:27.303Z,4.70
2023-05-08T23:55:54.182Z,4.30
2023-05-08T23:58:21.150Z,4.20
